Time;durP1;ratioP1;P1;durP2;ratioP2;P2;SDS_P1;SDS_P2;PMS_P1;PMS_P2;Temp;Humidity;BMP_temperature;BMP_pressure;BME280_temperature;BME280_humidity;BME280_pressure;Samples;Min_cycle;Max_cycle;Signal;HPM_P1;HPM_P2
2021/12/22 00:01:26;;;;;;;28.73;19.23;;;-1.30;99.90;;;;;;4883825;29;20412;-58
2021/12/22 00:03:53;;;;;;;31.80;18.73;;;-1.40;99.90;;;;;;4883693;29;20125;-59
2021/12/22 00:06:22;;;;;;;33.33;18.10;;;-1.40;99.90;;;;;;4870977;29;20153;-59
2021/12/22 00:08:48;;;;;;;28.65;17.85;;;-1.40;99.90;;;;;;4884414;29;20049;-59
2021/12/22 00:11:14;;;;;;;28.08;17.90;;;-1.40;99.90;;;;;;4881172;29;20048;-58
2021/12/22 00:13:40;;;;;;;32.72;18.52;;;-1.40;99.90;;;;;;4887392;29;20052;-59
2021/12/22 00:16:06;;;;;;;29.15;17.83;;;-1.40;99.90;;;;;;4884472;29;20047;-59
2021/12/22 00:18:32;;;;;;;30.58;18.27;;;-1.40;99.90;;;;;;4875231;29;20075;-58
2021/12/22 00:20:58;;;;;;;30.85;20.05;;;-1.50;99.90;;;;;;4884211;29;20670;-59
2021/12/22 00:23:24;;;;;;;38.90;22.17;;;-1.50;99.90;;;;;;4883158;29;20414;-59
2021/12/22 00:25:50;;;;;;;36.75;21.92;;;-1.50;99.90;;;;;;4869952;29;20049;-58
2021/12/22 00:28:16;;;;;;;32.10;19.38;;;-1.50;99.90;;;;;;4884954;29;20049;-59
2021/12/22 00:30:42;;;;;;;39.97;21.50;;;-1.50;99.90;;;;;;4884188;29;20041;-58
2021/12/22 00:33:10;;;;;;;28.30;19.00;;;-1.60;99.90;;;;;;4869761;29;20056;-58
2021/12/22 00:35:40;;;;;;;33.47;19.80;;;-1.60;99.90;;;;;;4875444;29;20056;-57
2021/12/22 00:38:07;;;;;;;36.65;20.00;;;-1.60;99.90;;;;;;4884563;29;20555;-59
2021/12/22 00:40:34;;;;;;;30.08;18.92;;;-1.70;99.90;;;;;;4881967;29;20045;-59
2021/12/22 00:42:59;;;;;;;29.70;18.77;;;-1.70;99.90;;;;;;4885554;29;20085;-58
2021/12/22 00:45:28;;;;;;;29.55;18.42;;;-1.70;99.90;;;;;;4866294;29;20048;-58
2021/12/22 00:47:55;;;;;;;29.73;17.52;;;-1.70;99.90;;;;;;4883285;29;20378;-57
2021/12/22 00:50:22;;;;;;;30.63;18.02;;;-1.70;99.90;;;;;;4882523;29;20717;-58
2021/12/22 00:52:48;;;;;;;32.35;17.90;;;-1.70;99.90;;;;;;4871310;29;20044;-59
2021/12/22 00:55:18;;;;;;;30.30;19.15;;;-1.70;99.90;;;;;;4865923;29;20045;-58
2021/12/22 00:57:45;;;;;;;30.98;18.30;;;-1.70;99.90;;;;;;4885198;29;20059;-58
2021/12/22 01:00:11;;;;;;;30.50;19.00;;;-1.80;99.90;;;;;;4881229;29;20484;-58
2021/12/22 01:02:37;;;;;;;31.80;19.85;;;-1.70;99.90;;;;;;4885600;29;20124;-58
2021/12/22 01:05:04;;;;;;;35.03;19.35;;;-1.80;99.90;;;;;;4884917;29;20049;-58
2021/12/22 01:07:30;;;;;;;31.70;18.90;;;-1.70;99.90;;;;;;4881937;29;20080;-58
2021/12/22 01:09:56;;;;;;;30.52;19.13;;;-1.80;99.90;;;;;;4883916;29;20072;-58
2021/12/22 01:12:22;;;;;;;33.33;19.55;;;-1.80;99.90;;;;;;4885732;29;20084;-58
2021/12/22 01:14:48;;;;;;;32.17;18.67;;;-1.80;99.90;;;;;;4885573;29;20060;-58
2021/12/22 01:17:15;;;;;;;32.28;19.08;;;-1.80;99.90;;;;;;4884515;29;20052;-59
2021/12/22 01:20:04;;;;;;;34.00;19.55;;;-1.90;99.90;;;;;;4885122;29;20063;-59
2021/12/22 01:25:15;;;;;;;35.85;20.45;;;-1.90;99.90;;;;;;4883955;29;20048;-59
2021/12/22 01:27:43;;;;;;;31.73;20.10;;;-1.90;99.90;;;;;;4881530;29;20056;-59
2021/12/22 01:30:21;;;;;;;34.40;20.10;;;-1.80;99.90;;;;;;4873044;29;20044;-59
2021/12/22 01:32:49;;;;;;;34.00;19.48;;;-1.80;99.90;;;;;;4884756;29;20056;-57
2021/12/22 01:35:17;;;;;;;32.65;19.27;;;-1.80;99.90;;;;;;4886505;29;20044;-59
2021/12/22 01:37:44;;;;;;;34.45;21.00;;;-1.80;99.90;;;;;;4887851;29;20052;-58
2021/12/22 01:40:12;;;;;;;30.30;19.23;;;-1.90;99.90;;;;;;4887917;29;20057;-57
2021/12/22 01:42:39;;;;;;;30.38;19.27;;;-1.90;99.90;;;;;;4888758;29;20059;-59
2021/12/22 01:52:05;;;;;;;32.72;20.20;;;-1.90;99.90;;;;;;4889047;29;20496;-59
2021/12/22 01:54:38;;;;;;;31.58;19.25;;;-1.90;99.90;;;;;;4885860;29;20492;-58
2021/12/22 01:57:09;;;;;;;31.85;19.75;;;-1.90;99.90;;;;;;4872005;29;20044;-58
2021/12/22 01:59:37;;;;;;;35.70;21.52;;;-1.90;99.90;;;;;;4887571;29;20055;-59
2021/12/22 02:02:06;;;;;;;33.65;21.92;;;-1.90;99.90;;;;;;4887800;29;20055;-57
2021/12/22 02:04:32;;;;;;;33.95;20.00;;;-1.90;99.90;;;;;;4885284;29;20068;-59
2021/12/22 02:06:58;;;;;;;39.50;20.27;;;-2.00;99.90;;;;;;4867861;29;20132;-59
2021/12/22 02:11:55;;;;;;;30.17;19.15;;;-2.00;99.90;;;;;;4888466;29;20518;-58
2021/12/22 02:14:21;;;;;;;36.65;19.50;;;-2.00;99.90;;;;;;4887539;29;20053;-59
2021/12/22 02:16:47;;;;;;;33.35;19.10;;;-2.00;99.90;;;;;;4888608;29;20040;-59
2021/12/22 02:19:14;;;;;;;30.70;20.08;;;-2.10;99.90;;;;;;4886054;29;20044;-58
2021/12/22 02:21:51;;;;;;;32.08;20.02;;;-2.10;99.90;;;;;;4887744;29;20484;-58
2021/12/22 02:24:17;;;;;;;33.38;19.88;;;-2.10;99.90;;;;;;4886320;29;20055;-58
2021/12/22 02:27:01;;;;;;;34.83;20.60;;;-2.10;99.90;;;;;;4886859;29;20053;-59
2021/12/22 02:29:35;;;;;;;34.55;21.63;;;-2.10;99.90;;;;;;4870295;29;20169;-58
2021/12/22 02:32:08;;;;;;;36.38;20.52;;;-2.10;99.90;;;;;;4886350;29;20051;-59
2021/12/22 02:34:41;;;;;;;35.20;21.27;;;-2.10;99.90;;;;;;4885773;29;20500;-59
2021/12/22 02:37:12;;;;;;;32.15;20.98;;;-2.10;99.90;;;;;;4886302;29;20664;-59
2021/12/22 02:39:43;;;;;;;32.88;20.42;;;-2.10;99.90;;;;;;4887371;29;20163;-59
2021/12/22 02:42:11;;;;;;;38.27;20.23;;;-2.10;99.90;;;;;;4887280;29;20127;-58
2021/12/22 02:44:37;;;;;;;32.78;20.83;;;-2.20;99.90;;;;;;4886304;29;20436;-58
2021/12/22 02:47:21;;;;;;;34.33;20.65;;;-2.20;99.90;;;;;;4873504;29;20139;-59
2021/12/22 02:49:47;;;;;;;29.88;20.30;;;-2.20;99.90;;;;;;4886417;29;20045;-57
2021/12/22 02:52:13;;;;;;;31.67;20.13;;;-2.20;99.90;;;;;;4871519;29;20485;-57
2021/12/22 02:54:55;;;;;;;34.03;20.88;;;-2.20;99.90;;;;;;4887358;29;20064;-58
2021/12/22 02:57:30;;;;;;;31.00;19.48;;;-2.20;99.90;;;;;;4887456;29;20053;-58
2021/12/22 03:03:04;;;;;;;32.17;20.10;;;-2.20;99.90;;;;;;4883113;29;20595;-58
2021/12/22 03:05:30;;;;;;;37.75;22.40;;;-2.30;99.90;;;;;;4872428;29;20584;-58
2021/12/22 03:07:56;;;;;;;36.28;20.75;;;-2.30;99.90;;;;;;4886912;29;20049;-58
2021/12/22 03:10:23;;;;;;;31.95;21.02;;;-2.30;99.90;;;;;;4886140;29;20055;-57
2021/12/22 03:12:52;;;;;;;41.38;21.00;;;-2.30;99.90;;;;;;4884352;29;20097;-58
2021/12/22 03:15:19;;;;;;;33.17;20.20;;;-2.30;99.90;;;;;;4886326;29;20041;-57
2021/12/22 03:17:46;;;;;;;32.22;20.35;;;-2.30;99.90;;;;;;4869387;29;20057;-58
2021/12/22 03:20:14;;;;;;;34.53;20.10;;;-2.40;99.90;;;;;;4885063;29;20060;-58
2021/12/22 03:22:43;;;;;;;33.85;19.98;;;-2.30;99.90;;;;;;4886628;29;20236;-58
2021/12/22 03:25:20;;;;;;;33.28;20.35;;;-2.40;99.90;;;;;;4886008;29;20088;-58
2021/12/22 03:27:49;;;;;;;32.65;19.88;;;-2.40;99.90;;;;;;4882779;29;20400;-58
2021/12/22 03:30:18;;;;;;;35.42;19.65;;;-2.40;99.90;;;;;;4881584;29;20119;-58
2021/12/22 03:32:44;;;;;;;34.58;19.35;;;-2.30;99.90;;;;;;4873517;29;20064;-57
2021/12/22 03:35:16;;;;;;;30.92;20.13;;;-2.30;99.90;;;;;;4870854;29;20056;-59
2021/12/22 03:37:42;;;;;;;29.00;19.67;;;-2.40;99.90;;;;;;4886099;29;20408;-59
2021/12/22 03:40:09;;;;;;;32.58;18.40;;;-2.40;99.90;;;;;;4884572;29;20048;-58
2021/12/22 03:42:35;;;;;;;37.50;19.58;;;-2.40;99.90;;;;;;4887929;29;20052;-58
2021/12/22 03:45:00;;;;;;;32.38;19.35;;;-2.40;99.90;;;;;;4887052;29;20059;-57
2021/12/22 03:47:27;;;;;;;28.75;19.00;;;-2.40;99.90;;;;;;4886017;29;20032;-57
2021/12/22 03:49:53;;;;;;;33.90;20.17;;;-2.50;99.90;;;;;;4884928;29;20052;-58
2021/12/22 03:52:19;;;;;;;31.45;19.10;;;-2.50;99.90;;;;;;4885650;29;20049;-58
2021/12/22 03:54:44;;;;;;;32.95;18.70;;;-2.50;99.90;;;;;;4883799;29;20518;-58
2021/12/22 03:57:10;;;;;;;34.78;19.42;;;-2.50;99.90;;;;;;4885196;29;20060;-58
2021/12/22 03:59:36;;;;;;;30.55;19.23;;;-2.50;99.90;;;;;;4885620;29;20056;-58
2021/12/22 04:02:02;;;;;;;35.05;18.15;;;-2.50;99.90;;;;;;4867726;29;20095;-56
2021/12/22 04:04:28;;;;;;;35.80;19.77;;;-2.50;99.90;;;;;;4885186;29;20104;-58
2021/12/22 04:06:54;;;;;;;31.77;19.45;;;-2.60;99.90;;;;;;4885469;29;20504;-58
2021/12/22 04:09:26;;;;;;;32.40;19.45;;;-2.60;99.90;;;;;;4885937;29;20045;-59
2021/12/22 04:11:52;;;;;;;34.63;19.40;;;-2.60;99.90;;;;;;4886803;29;20515;-59
2021/12/22 04:14:18;;;;;;;32.92;19.45;;;-2.60;99.90;;;;;;4884086;29;20053;-58
2021/12/22 04:16:44;;;;;;;32.10;18.98;;;-2.60;99.90;;;;;;4872049;29;20051;-59
2021/12/22 04:19:10;;;;;;;29.83;19.17;;;-2.60;99.90;;;;;;4885991;29;20052;-59
2021/12/22 04:21:35;;;;;;;30.17;18.70;;;-2.60;99.90;;;;;;4885476;29;20506;-59
2021/12/22 04:24:02;;;;;;;36.13;19.83;;;-2.60;99.90;;;;;;4882694;29;20076;-59
2021/12/22 04:26:31;;;;;;;37.03;20.00;;;-2.60;99.90;;;;;;4866586;29;20044;-59
2021/12/22 04:28:57;;;;;;;32.42;18.63;;;-2.70;99.90;;;;;;4885088;29;20049;-58
2021/12/22 04:31:23;;;;;;;33.15;18.40;;;-2.70;99.90;;;;;;4883822;29;20488;-58
2021/12/22 04:33:49;;;;;;;35.22;19.92;;;-2.70;99.90;;;;;;4885398;29;20041;-59
2021/12/22 04:36:15;;;;;;;32.50;18.42;;;-2.60;99.90;;;;;;4885730;29;20075;-59
2021/12/22 04:38:41;;;;;;;30.30;17.42;;;-2.60;99.90;;;;;;4884628;29;20048;-57
2021/12/22 04:41:07;;;;;;;31.88;18.75;;;-2.70;99.90;;;;;;4868540;29;20052;-59
2021/12/22 04:43:32;;;;;;;31.70;17.48;;;-2.70;99.90;;;;;;4884669;29;20060;-58
2021/12/22 04:45:58;;;;;;;34.58;19.23;;;-2.70;99.90;;;;;;4867364;29;20071;-59
2021/12/22 04:48:24;;;;;;;31.85;18.52;;;-2.70;99.90;;;;;;4870201;29;20498;-59
2021/12/22 04:50:51;;;;;;;29.50;17.65;;;-2.70;99.90;;;;;;4872534;29;20049;-59
2021/12/22 04:53:28;;;;;;;31.55;17.40;;;-2.70;99.90;;;;;;4886360;29;20551;-58
2021/12/22 04:55:54;;;;;;;30.08;17.88;;;-2.70;99.90;;;;;;4852973;29;20048;-58
2021/12/22 04:58:20;;;;;;;32.00;17.80;;;-2.70;99.90;;;;;;4885682;29;20681;-58
2021/12/22 05:00:46;;;;;;;32.42;17.77;;;-2.80;99.90;;;;;;4883025;29;20634;-57
2021/12/22 05:03:12;;;;;;;27.35;17.02;;;-2.80;99.90;;;;;;4872530;29;20061;-58
2021/12/22 05:05:38;;;;;;;30.45;17.58;;;-2.80;99.90;;;;;;4884952;29;20052;-58
2021/12/22 05:08:04;;;;;;;27.83;17.20;;;-2.80;99.90;;;;;;4871807;29;20623;-58
2021/12/22 05:10:29;;;;;;;29.23;16.17;;;-2.80;99.90;;;;;;4870685;29;20056;-58
2021/12/22 05:12:56;;;;;;;28.20;17.42;;;-2.80;99.90;;;;;;4858989;29;20048;-57
2021/12/22 05:15:23;;;;;;;32.85;17.58;;;-2.80;99.90;;;;;;4874139;29;20164;-59
2021/12/22 05:20:19;;;;;;;29.60;16.90;;;-2.80;99.90;;;;;;4888707;29;20044;-58
2021/12/22 05:22:45;;;;;;;27.80;17.02;;;-2.80;99.90;;;;;;4888969;29;20057;-58
2021/12/22 05:25:11;;;;;;;29.98;17.25;;;-2.70;99.90;;;;;;4886374;29;20052;-58
2021/12/22 05:27:38;;;;;;;30.25;16.38;;;-2.80;99.90;;;;;;4888516;29;20052;-59
2021/12/22 05:30:06;;;;;;;30.63;17.38;;;-2.80;99.90;;;;;;4886816;29;20049;-59
2021/12/22 05:32:32;;;;;;;30.75;16.33;;;-2.90;99.90;;;;;;4887404;29;20144;-58
2021/12/22 05:35:00;;;;;;;25.63;16.35;;;-2.90;99.90;;;;;;4885819;29;20044;-59
2021/12/22 05:37:26;;;;;;;31.42;16.95;;;-2.90;99.90;;;;;;4872108;29;20052;-59
2021/12/22 05:39:52;;;;;;;28.73;16.98;;;-2.90;99.90;;;;;;4888024;29;20636;-58
2021/12/22 05:42:19;;;;;;;30.65;16.80;;;-2.90;99.90;;;;;;4888635;29;20080;-58
2021/12/22 05:44:45;;;;;;;29.30;17.35;;;-2.90;99.90;;;;;;4887643;29;20056;-58
2021/12/22 05:47:11;;;;;;;26.08;16.25;;;-2.90;99.90;;;;;;4883402;29;20056;-58
2021/12/22 05:49:36;;;;;;;30.23;16.83;;;-2.90;99.90;;;;;;4869641;29;20045;-59
2021/12/22 05:52:03;;;;;;;31.95;18.05;;;-3.00;99.90;;;;;;4889652;29;20084;-58
2021/12/22 05:54:30;;;;;;;27.58;17.30;;;-3.00;99.90;;;;;;4888498;29;20048;-58
2021/12/22 05:56:56;;;;;;;26.58;17.42;;;-3.00;99.90;;;;;;4888814;29;20128;-58
2021/12/22 05:59:23;;;;;;;26.95;16.75;;;-3.00;99.90;;;;;;4886886;29;20084;-59
2021/12/22 06:01:48;;;;;;;29.73;15.80;;;-3.00;99.90;;;;;;4885660;29;20991;-58
2021/12/22 06:04:14;;;;;;;28.02;16.48;;;-3.10;99.90;;;;;;4888689;29;20136;-59
2021/12/22 06:06:41;;;;;;;31.40;16.88;;;-3.10;99.90;;;;;;4871849;29;20088;-58
2021/12/22 06:09:07;;;;;;;29.30;17.02;;;-3.10;99.90;;;;;;4887111;29;20528;-58
2021/12/22 06:11:33;;;;;;;31.77;17.50;;;-3.10;99.90;;;;;;4886558;29;20483;-59
2021/12/22 06:13:59;;;;;;;27.20;15.88;;;-3.10;99.90;;;;;;4887529;29;20244;-57
2021/12/22 06:16:27;;;;;;;26.88;16.67;;;-3.10;99.90;;;;;;4887169;29;20562;-58
2021/12/22 06:18:57;;;;;;;28.38;17.98;;;-3.20;99.90;;;;;;4883625;29;20115;-57
2021/12/22 06:21:24;;;;;;;30.48;16.50;;;-3.10;99.90;;;;;;4885320;29;20056;-58
2021/12/22 06:23:50;;;;;;;30.77;17.60;;;-3.20;99.90;;;;;;4887844;29;20052;-59
2021/12/22 06:26:17;;;;;;;26.85;16.15;;;-3.20;99.90;;;;;;4887868;29;20087;-59
2021/12/22 06:28:43;;;;;;;31.55;17.90;;;-3.20;99.90;;;;;;4886095;29;20733;-57
2021/12/22 06:31:09;;;;;;;33.15;17.02;;;-3.20;99.90;;;;;;4871631;29;20049;-58
2021/12/22 06:33:35;;;;;;;31.35;17.13;;;-3.20;99.90;;;;;;4858360;29;20087;-57
2021/12/22 06:36:01;;;;;;;26.73;16.52;;;-3.20;99.90;;;;;;4868727;29;20128;-58
2021/12/22 06:38:27;;;;;;;26.42;16.13;;;-3.20;99.90;;;;;;4882392;29;20116;-58
2021/12/22 06:40:53;;;;;;;28.85;16.70;;;-3.20;99.90;;;;;;4887128;29;20056;-59
2021/12/22 06:43:19;;;;;;;29.20;16.08;;;-3.20;99.90;;;;;;4887020;29;20060;-59
2021/12/22 06:45:46;;;;;;;29.20;17.38;;;-3.20;99.90;;;;;;4886501;29;20049;-58
2021/12/22 06:48:12;;;;;;;28.15;16.50;;;-3.20;99.90;;;;;;4885379;29;20067;-57
2021/12/22 06:50:37;;;;;;;28.83;17.63;;;-3.20;99.90;;;;;;4886272;29;20040;-58
2021/12/22 06:53:03;;;;;;;29.27;16.77;;;-3.20;99.90;;;;;;4886033;29;20579;-58
2021/12/22 06:55:29;;;;;;;29.85;16.73;;;-3.30;99.90;;;;;;4868396;29;20048;-56
2021/12/22 06:57:55;;;;;;;29.25;16.77;;;-3.30;99.90;;;;;;4887399;29;20083;-58
2021/12/22 07:00:22;;;;;;;28.90;16.80;;;-3.30;99.90;;;;;;4882353;29;20052;-57
2021/12/22 07:02:48;;;;;;;31.13;18.20;;;-3.30;99.90;;;;;;4886256;29;20552;-59
2021/12/22 07:05:14;;;;;;;28.77;16.08;;;-3.30;99.90;;;;;;4884104;29;20489;-59
2021/12/22 07:07:40;;;;;;;31.15;17.13;;;-3.30;99.90;;;;;;4885171;29;20052;-59
2021/12/22 07:10:08;;;;;;;31.65;17.38;;;-3.30;99.90;;;;;;4884464;29;20051;-59
2021/12/22 07:12:35;;;;;;;29.73;16.70;;;-3.30;99.90;;;;;;4885796;29;20400;-60
2021/12/22 07:15:04;;;;;;;33.45;16.70;;;-3.30;99.90;;;;;;4868515;29;20055;-60
2021/12/22 07:17:30;;;;;;;29.17;16.20;;;-3.40;99.90;;;;;;4868392;29;20053;-58
2021/12/22 07:19:56;;;;;;;29.52;17.15;;;-3.40;99.90;;;;;;4884215;29;20053;-59
2021/12/22 07:22:22;;;;;;;37.58;18.45;;;-3.30;99.90;;;;;;4851213;29;20075;-58
2021/12/22 07:24:48;;;;;;;31.10;17.33;;;-3.40;99.90;;;;;;4879256;29;20417;-58
2021/12/22 07:27:13;;;;;;;37.75;16.58;;;-3.40;99.90;;;;;;4884950;29;20077;-59
2021/12/22 07:29:41;;;;;;;37.30;17.35;;;-3.40;99.90;;;;;;4883129;29;20045;-59
2021/12/22 07:32:07;;;;;;;30.15;16.45;;;-3.40;99.90;;;;;;4865004;29;20037;-58
2021/12/22 07:34:58;;;;;;;35.10;16.80;;;-3.40;99.90;;;;;;4872319;29;20089;-59
2021/12/22 07:37:31;;;;;;;30.60;17.27;;;-3.30;99.90;;;;;;4880226;29;20052;-59
2021/12/22 07:39:57;;;;;;;36.80;16.88;;;-3.30;99.90;;;;;;4867867;29;20044;-58
2021/12/22 07:42:23;;;;;;;31.33;16.52;;;-3.30;99.90;;;;;;4855691;29;20498;-59
2021/12/22 07:44:48;;;;;;;33.22;17.55;;;-3.30;99.90;;;;;;4883516;29;20057;-59
2021/12/22 07:47:15;;;;;;;30.88;16.13;;;-3.30;99.90;;;;;;4885297;29;20147;-58
2021/12/22 07:49:41;;;;;;;32.80;16.48;;;-3.30;99.90;;;;;;4872610;29;20532;-57
2021/12/22 07:52:07;;;;;;;33.53;17.23;;;-3.30;99.90;;;;;;4883823;29;20056;-57
2021/12/22 07:54:32;;;;;;;33.20;17.20;;;-3.30;99.90;;;;;;4865041;29;20055;-59
2021/12/22 07:56:58;;;;;;;31.63;17.10;;;-3.30;99.90;;;;;;4884860;29;20116;-59
2021/12/22 07:59:24;;;;;;;34.20;17.45;;;-3.30;99.90;;;;;;4866594;29;20048;-59
2021/12/22 08:01:50;;;;;;;33.65;15.93;;;-3.30;99.90;;;;;;4885418;29;20071;-59
2021/12/22 08:04:15;;;;;;;29.83;16.35;;;-3.30;99.90;;;;;;4882821;29;20048;-59
2021/12/22 08:06:41;;;;;;;29.17;16.33;;;-3.30;99.90;;;;;;4867727;29;20056;-59
2021/12/22 08:09:08;;;;;;;29.45;16.45;;;-3.30;99.90;;;;;;4871763;29;20913;-59
2021/12/22 08:11:34;;;;;;;32.17;16.55;;;-3.20;99.90;;;;;;4885623;29;20041;-59
2021/12/22 08:14:00;;;;;;;33.58;16.25;;;-3.20;99.90;;;;;;4871510;29;20052;-59
2021/12/22 08:16:26;;;;;;;28.35;16.45;;;-3.20;99.90;;;;;;4886083;29;20048;-59
2021/12/22 08:18:52;;;;;;;33.65;17.20;;;-3.20;99.90;;;;;;4885089;29;20052;-59
2021/12/22 08:21:18;;;;;;;26.95;16.10;;;-3.10;99.90;;;;;;4868164;29;20256;-60
2021/12/22 08:23:43;;;;;;;29.75;16.50;;;-3.20;99.90;;;;;;4885087;29;20508;-58
2021/12/22 08:26:09;;;;;;;30.05;16.75;;;-3.20;99.90;;;;;;4884868;29;20111;-59
2021/12/22 08:28:35;;;;;;;28.35;15.90;;;-3.20;99.90;;;;;;4884311;29;20056;-59
2021/12/22 08:31:01;;;;;;;29.60;15.80;;;-3.10;99.90;;;;;;4884933;29;20567;-58
2021/12/22 08:33:31;;;;;;;30.80;16.88;;;-3.10;99.90;;;;;;4885259;29;20104;-58
2021/12/22 08:38:51;;;;;;;29.58;16.17;;;-3.00;99.90;;;;;;4886522;29;20139;-58
2021/12/22 08:41:40;;;;;;;31.15;16.48;;;-3.00;99.90;;;;;;4884108;29;20103;-59
2021/12/22 08:44:09;;;;;;;28.98;16.08;;;-2.90;99.90;;;;;;4883931;29;20396;-58
2021/12/22 08:46:37;;;;;;;27.75;16.00;;;-2.90;99.90;;;;;;4885589;29;20064;-59
2021/12/22 08:49:05;;;;;;;28.73;15.90;;;-2.90;99.90;;;;;;4884171;29;20136;-59
2021/12/22 08:51:30;;;;;;;28.33;16.40;;;-2.80;99.90;;;;;;4852879;29;20056;-59
2021/12/22 08:53:56;;;;;;;32.15;16.55;;;-2.80;99.90;;;;;;4884406;29;20044;-59
2021/12/22 08:56:23;;;;;;;33.03;16.58;;;-2.80;99.90;;;;;;4886151;29;20051;-59
2021/12/22 08:58:49;;;;;;;31.30;16.50;;;-2.70;99.90;;;;;;4868532;29;20064;-58
2021/12/22 09:01:15;;;;;;;30.52;16.08;;;-2.70;99.90;;;;;;4886547;29;20074;-59
2021/12/22 09:03:41;;;;;;;29.52;16.55;;;-2.70;99.90;;;;;;4884953;29;20040;-59
2021/12/22 09:06:06;;;;;;;31.35;16.60;;;-2.70;99.90;;;;;;4868509;29;20068;-59
2021/12/22 09:08:32;;;;;;;31.33;17.75;;;-2.60;99.90;;;;;;4854102;29;20048;-59
2021/12/22 09:10:58;;;;;;;32.13;16.85;;;-2.60;99.90;;;;;;4886182;29;20132;-58
2021/12/22 09:13:25;;;;;;;30.85;17.05;;;-2.60;99.90;;;;;;4869453;29;20045;-59
2021/12/22 09:15:51;;;;;;;29.02;16.17;;;-2.60;99.90;;;;;;4882785;29;20936;-59
2021/12/22 09:18:17;;;;;;;31.88;16.77;;;-2.50;99.90;;;;;;4886826;29;20052;-59
2021/12/22 09:20:43;;;;;;;27.83;17.02;;;-2.50;99.90;;;;;;4883732;29;20083;-57
2021/12/22 09:23:09;;;;;;;34.63;16.58;;;-2.50;99.90;;;;;;4887426;29;20049;-58
2021/12/22 09:25:35;;;;;;;30.23;17.20;;;-2.40;99.90;;;;;;4882660;29;20544;-59
2021/12/22 09:28:02;;;;;;;29.40;16.48;;;-2.40;99.90;;;;;;4867181;29;20080;-60
2021/12/22 09:30:35;;;;;;;34.67;16.98;;;-2.40;99.90;;;;;;4864461;29;20064;-59
2021/12/22 09:33:03;;;;;;;36.20;17.45;;;-2.30;99.90;;;;;;4866988;29;20045;-59
2021/12/22 09:35:29;;;;;;;39.58;16.58;;;-2.20;99.90;;;;;;4884161;29;20127;-59
2021/12/22 09:37:55;;;;;;;30.92;16.02;;;-2.20;99.90;;;;;;4882167;29;20411;-59
2021/12/22 09:40:20;;;;;;;29.17;16.58;;;-2.20;99.90;;;;;;4868025;29;20048;-58
2021/12/22 09:42:46;;;;;;;29.95;17.17;;;-2.20;99.90;;;;;;4884315;29;20076;-59
2021/12/22 09:45:12;;;;;;;34.58;16.92;;;-2.10;99.90;;;;;;4869852;29;20058;-59
2021/12/22 09:47:58;;;;;;;32.38;17.27;;;-2.10;99.90;;;;;;4883978;29;20486;-59
2021/12/22 09:50:38;;;;;;;34.33;18.08;;;-2.00;99.90;;;;;;4883989;29;20045;-60
2021/12/22 09:53:04;;;;;;;31.20;15.77;;;-1.80;99.90;;;;;;4865831;29;20060;-59
2021/12/22 09:55:33;;;;;;;30.40;16.35;;;-2.00;99.90;;;;;;4885825;29;20464;-59
2021/12/22 09:58:02;;;;;;;31.05;16.13;;;-1.90;99.90;;;;;;4887050;29;20512;-59
2021/12/22 10:00:28;;;;;;;31.58;16.40;;;-1.90;99.90;;;;;;4868682;29;20067;-60
2021/12/22 10:02:53;;;;;;;31.88;16.67;;;-1.80;99.90;;;;;;4885744;29;20045;-60
2021/12/22 10:05:19;;;;;;;30.25;16.38;;;-1.80;99.90;;;;;;4885597;29;20088;-59
2021/12/22 10:07:45;;;;;;;32.97;17.00;;;-1.80;99.90;;;;;;4886359;29;20064;-59
2021/12/22 10:10:13;;;;;;;30.35;16.10;;;-1.70;99.90;;;;;;4859823;29;20049;-58
2021/12/22 10:12:39;;;;;;;33.97;16.60;;;-1.60;99.90;;;;;;4886211;29;20056;-60
2021/12/22 10:15:07;;;;;;;30.52;16.23;;;-1.60;99.90;;;;;;4858335;29;20052;-59
2021/12/22 10:17:43;;;;;;;31.88;16.75;;;-1.50;99.90;;;;;;4886192;29;20456;-57
2021/12/22 10:20:15;;;;;;;32.80;16.23;;;-1.40;99.90;;;;;;4884784;29;20377;-58
2021/12/22 10:22:44;;;;;;;30.67;17.70;;;-1.40;99.90;;;;;;4886093;29;20052;-59
2021/12/22 10:25:18;;;;;;;25.60;15.32;;;-1.40;99.90;;;;;;4887557;29;20045;-60
2021/12/22 10:27:55;;;;;;;28.63;16.25;;;-1.30;99.90;;;;;;4885822;29;20059;-59
2021/12/22 10:30:36;;;;;;;27.48;15.68;;;-1.20;99.90;;;;;;4870278;29;20047;-59
2021/12/22 10:33:14;;;;;;;31.60;17.00;;;-1.10;99.90;;;;;;4884416;29;20466;-59
2021/12/22 10:35:44;;;;;;;30.45;16.40;;;-1.10;99.90;;;;;;4873918;29;20539;-60
2021/12/22 10:38:12;;;;;;;30.55;15.85;;;-1.00;99.90;;;;;;4885145;29;20461;-59
2021/12/22 10:40:44;;;;;;;28.60;15.48;;;-0.90;99.90;;;;;;4885690;29;20167;-60
2021/12/22 10:43:31;;;;;;;28.02;15.55;;;-0.90;99.90;;;;;;4885544;29;20502;-58
2021/12/22 10:46:06;;;;;;;29.13;15.85;;;-0.80;99.90;;;;;;4858171;29;20083;-59
2021/12/22 10:51:33;;;;;;;27.30;15.38;;;-0.80;99.90;;;;;;4876082;29;20497;-59
2021/12/22 10:54:00;;;;;;;28.08;14.98;;;-0.80;99.90;;;;;;4885779;29;20045;-59
2021/12/22 10:56:32;;;;;;;27.38;15.38;;;-0.80;99.90;;;;;;4865631;29;20044;-60
2021/12/22 10:59:10;;;;;;;30.05;15.57;;;-0.70;99.90;;;;;;4886334;29;20048;-58
2021/12/22 11:02:05;;;;;;;29.40;15.05;;;-0.70;99.90;;;;;;4874455;29;20044;-60
2021/12/22 11:04:33;;;;;;;28.95;15.15;;;-0.70;99.90;;;;;;4866416;29;20487;-59
2021/12/22 11:07:20;;;;;;;26.42;14.75;;;-0.70;99.90;;;;;;4868248;29;20472;-60
2021/12/22 11:09:46;;;;;;;27.67;14.95;;;-0.70;99.90;;;;;;4885286;29;20137;-59
2021/12/22 11:12:14;;;;;;;27.90;15.75;;;-0.70;99.90;;;;;;4885992;29;20152;-59
2021/12/22 11:14:42;;;;;;;28.20;15.38;;;-0.70;99.90;;;;;;4884561;29;20547;-60
2021/12/22 11:17:13;;;;;;;26.55;14.95;;;-0.70;99.90;;;;;;4870789;29;20044;-59
2021/12/22 11:19:52;;;;;;;40.08;14.05;;;-0.60;99.90;;;;;;4886558;29;20095;-60
2021/12/22 11:22:24;;;;;;;22.23;14.13;;;-0.70;99.90;;;;;;4868376;29;20177;-59
2021/12/22 11:24:52;;;;;;;27.38;15.07;;;-0.60;99.90;;;;;;4867736;29;20075;-59
2021/12/22 11:27:26;;;;;;;27.70;15.20;;;-0.70;99.90;;;;;;4887471;29;20107;-60
2021/12/22 11:29:54;;;;;;;27.08;15.63;;;-0.70;99.90;;;;;;4884990;29;20049;-59
2021/12/22 11:32:30;;;;;;;24.00;14.27;;;-0.70;99.90;;;;;;4872697;29;20120;-59
2021/12/22 11:35:01;;;;;;;30.13;15.68;;;-0.60;99.90;;;;;;4867280;29;20488;-59
2021/12/22 11:37:28;;;;;;;27.33;15.05;;;-0.60;99.90;;;;;;4885759;29;20051;-60
2021/12/22 11:39:54;;;;;;;28.05;14.85;;;-0.60;99.90;;;;;;4871875;29;20127;-60
2021/12/22 11:42:25;;;;;;;21.70;13.98;;;-0.60;99.90;;;;;;4886147;29;20052;-59
2021/12/22 11:44:55;;;;;;;29.50;14.55;;;-0.60;99.90;;;;;;4870618;29;20056;-59
2021/12/22 11:47:21;;;;;;;28.55;15.20;;;-0.60;99.90;;;;;;4867497;29;20044;-59
2021/12/22 11:49:51;;;;;;;22.75;14.68;;;-0.60;99.90;;;;;;4882606;29;20045;-59
2021/12/22 11:52:54;;;;;;;25.50;14.40;;;-0.50;99.90;;;;;;4863544;29;20049;-59
2021/12/22 11:55:25;;;;;;;25.85;13.93;;;-0.60;99.90;;;;;;4862534;29;20056;-59
2021/12/22 11:58:10;;;;;;;21.50;14.00;;;-0.60;99.90;;;;;;4881383;29;20059;-60
2021/12/22 12:00:36;;;;;;;29.80;14.38;;;-0.60;99.90;;;;;;4885399;29;20500;-60
2021/12/22 12:03:33;;;;;;;31.48;15.52;;;-0.60;99.90;;;;;;4871899;29;20060;-58
2021/12/22 12:06:22;;;;;;;27.73;15.23;;;-0.50;99.90;;;;;;4880748;29;20048;-59
2021/12/22 12:08:56;;;;;;;24.73;14.52;;;-0.50;99.90;;;;;;4881573;29;20103;-60
2021/12/22 12:11:42;;;;;;;25.80;15.23;;;-0.50;99.90;;;;;;4871972;29;20564;-59
2021/12/22 12:14:31;;;;;;;27.50;15.60;;;-0.50;99.90;;;;;;4885292;29;20669;-58
2021/12/22 12:23:32;;;;;;;26.77;15.50;;;-0.40;99.90;;;;;;4865313;29;21245;-59
2021/12/22 12:26:04;;;;;;;31.58;15.07;;;-0.40;99.90;;;;;;4866620;29;20048;-58
2021/12/22 12:28:31;;;;;;;24.33;15.05;;;-0.40;99.90;;;;;;4867766;29;20053;-59
2021/12/22 12:30:59;;;;;;;28.45;14.57;;;-0.30;99.90;;;;;;4851004;29;20072;-59
2021/12/22 12:33:28;;;;;;;23.17;14.15;;;-0.30;99.90;;;;;;4883675;29;20145;-60
2021/12/22 12:36:04;;;;;;;25.08;14.30;;;-0.30;99.90;;;;;;4867189;29;20485;-59
2021/12/22 12:38:55;;;;;;;24.80;14.85;;;-0.30;99.90;;;;;;4884933;29;20052;-60
2021/12/22 12:41:27;;;;;;;23.35;14.05;;;-0.30;99.90;;;;;;4877180;29;20468;-59
2021/12/22 12:43:59;;;;;;;23.48;14.68;;;-0.30;99.90;;;;;;4883833;29;20131;-59
2021/12/22 12:46:51;;;;;;;22.20;14.50;;;-0.30;99.90;;;;;;4883516;29;20049;-59
2021/12/22 12:49:19;;;;;;;27.48;14.55;;;-0.30;99.90;;;;;;4878480;29;20072;-59
2021/12/22 12:51:47;;;;;;;25.17;14.35;;;-0.30;99.90;;;;;;4881194;29;20049;-59
2021/12/22 12:54:20;;;;;;;22.48;13.90;;;-0.30;99.90;;;;;;4881403;29;20075;-59
2021/12/22 12:56:48;;;;;;;23.52;14.10;;;-0.20;99.90;;;;;;4883583;29;20055;-60
2021/12/22 12:59:15;;;;;;;23.80;14.30;;;-0.20;99.90;;;;;;4882967;29;20044;-60
2021/12/22 13:01:47;;;;;;;23.73;13.65;;;-0.20;99.90;;;;;;4882454;29;20045;-59
2021/12/22 13:04:27;;;;;;;22.03;14.07;;;-0.10;99.90;;;;;;4881218;29;20441;-59
2021/12/22 13:06:55;;;;;;;22.88;14.73;;;-0.10;99.90;;;;;;4883118;29;20095;-59